createdAt,value
2023-01-05T00:01:21.764Z,11.90
2023-01-05T00:03:24.593Z,11.90
2023-01-05T00:05:27.489Z,11.80
2023-01-05T00:07:30.302Z,11.90
2023-01-05T00:09:33.985Z,11.90
2023-01-05T00:12:13.995Z,11.90
2023-01-05T00:16:53.272Z,12.00
2023-01-05T00:19:14.045Z,12.00
2023-01-05T00:21:35.297Z,12.00
2023-01-05T00:23:39.740Z,11.90
2023-01-05T00:25:42.626Z,11.90
2023-01-05T00:27:47.557Z,11.90
2023-01-05T00:29:50.162Z,12.00
2023-01-05T00:31:52.771Z,12.00
2023-01-05T00:33:57.617Z,12.00
2023-01-05T00:36:02.039Z,12.00
2023-01-05T00:38:05.739Z,12.00
2023-01-05T00:40:10.275Z,11.90
2023-01-05T00:42:13.331Z,12.00
2023-01-05T00:44:16.311Z,11.90
2023-01-05T00:46:19.996Z,12.00
2023-01-05T00:48:22.980Z,11.90
2023-01-05T00:50:26.470Z,11.90
2023-01-05T00:52:30.177Z,11.80
2023-01-05T00:54:33.103Z,11.80
2023-01-05T00:56:35.929Z,11.80
2023-01-05T00:58:38.977Z,11.80
2023-01-05T01:00:47.609Z,11.70
2023-01-05T01:02:49.685Z,11.70
2023-01-05T01:04:52.265Z,11.80
2023-01-05T01:06:55.138Z,11.70
2023-01-05T01:08:59.878Z,11.70
2023-01-05T01:11:06.750Z,11.70
2023-01-05T01:13:09.596Z,11.70
2023-01-05T01:15:12.445Z,11.70
2023-01-05T01:17:15.333Z,11.70
2023-01-05T01:19:19.074Z,11.70
2023-01-05T01:21:22.668Z,11.70
2023-01-05T01:23:26.520Z,11.80
2023-01-05T01:25:30.935Z,11.70
2023-01-05T01:27:33.895Z,11.70
2023-01-05T01:29:36.991Z,11.70
2023-01-05T01:31:39.689Z,11.70
2023-01-05T01:33:42.576Z,11.70
2023-01-05T01:35:46.288Z,11.70
2023-01-05T01:37:48.901Z,11.60
2023-01-05T01:39:51.569Z,11.60
2023-01-05T01:41:54.534Z,11.60
2023-01-05T01:43:57.361Z,11.60
2023-01-05T01:46:01.469Z,11.60
2023-01-05T01:48:04.404Z,11.70
2023-01-05T01:50:09.549Z,11.60
2023-01-05T01:52:12.131Z,11.60
2023-01-05T01:54:15.733Z,11.60
2023-01-05T01:56:19.410Z,11.60
2023-01-05T01:58:23.805Z,11.60
2023-01-05T02:00:26.537Z,11.60
2023-01-05T02:02:29.775Z,11.60
2023-01-05T02:04:33.071Z,11.60
2023-01-05T02:06:36.485Z,11.60
2023-01-05T02:08:39.148Z,11.50
2023-01-05T02:10:53.073Z,11.50
2023-01-05T02:13:00.762Z,11.60
2023-01-05T02:15:07.938Z,11.60
2023-01-05T02:17:14.609Z,11.50
2023-01-05T02:19:26.399Z,11.50
2023-01-05T02:21:33.490Z,11.50
2023-01-05T02:23:54.335Z,11.50
2023-01-05T02:26:08.031Z,11.50
2023-01-05T02:28:14.772Z,11.50
2023-01-05T02:30:30.009Z,11.50
2023-01-05T02:32:36.459Z,11.50
2023-01-05T02:34:41.445Z,11.50
2023-01-05T02:36:46.405Z,11.50
2023-01-05T02:38:51.840Z,11.50
2023-01-05T02:40:56.547Z,11.50
2023-01-05T02:43:00.225Z,11.50
2023-01-05T02:45:04.754Z,11.50
2023-01-05T02:47:08.257Z,11.50
2023-01-05T02:49:11.541Z,11.50
2023-01-05T02:51:15.997Z,11.50
2023-01-05T02:53:20.807Z,11.50
2023-01-05T02:55:25.642Z,11.50
2023-01-05T02:57:46.717Z,11.50
2023-01-05T02:59:54.202Z,11.50
2023-01-05T03:01:59.891Z,11.50
2023-01-05T03:04:04.414Z,11.50
2023-01-05T03:06:08.555Z,11.50
2023-01-05T03:08:14.023Z,11.50
2023-01-05T03:10:36.408Z,11.50
2023-01-05T03:12:57.145Z,11.50
2023-01-05T03:15:02.647Z,11.50
2023-01-05T03:17:06.470Z,11.50
2023-01-05T03:19:28.560Z,11.40
2023-01-05T03:21:49.695Z,11.40
2023-01-05T03:24:11.454Z,11.40
2023-01-05T03:26:32.316Z,11.40
2023-01-05T03:28:56.098Z,11.40
2023-01-05T03:31:19.875Z,11.30
2023-01-05T03:33:43.906Z,11.30
2023-01-05T03:35:47.852Z,11.30
2023-01-05T03:37:52.538Z,11.30
2023-01-05T03:39:55.120Z,11.30
2023-01-05T03:41:58.794Z,11.30
2023-01-05T03:44:02.079Z,11.30
2023-01-05T03:46:10.602Z,11.20
2023-01-05T03:48:13.821Z,11.20
2023-01-05T03:50:16.523Z,11.10
2023-01-05T03:52:19.125Z,11.10
2023-01-05T03:54:21.694Z,11.00
2023-01-05T03:56:24.301Z,11.00
2023-01-05T03:58:28.679Z,11.00
2023-01-05T04:00:32.757Z,11.00
2023-01-05T04:02:37.387Z,11.00
2023-01-05T04:04:40.667Z,11.10
2023-01-05T04:06:44.383Z,11.10
2023-01-05T04:08:47.150Z,11.00
2023-01-05T04:10:52.271Z,11.10
2023-01-05T04:12:55.623Z,11.10
2023-01-05T04:14:58.254Z,11.10
2023-01-05T04:17:01.006Z,11.00
2023-01-05T04:19:03.634Z,10.80
2023-01-05T04:21:07.297Z,10.80
2023-01-05T04:23:10.010Z,10.60
2023-01-05T04:25:12.571Z,10.60
2023-01-05T04:27:16.850Z,10.60
2023-01-05T04:29:19.445Z,10.40
2023-01-05T04:31:23.934Z,10.40
2023-01-05T04:33:27.642Z,10.40
2023-01-05T04:35:30.747Z,10.40
2023-01-05T04:37:33.759Z,10.40
2023-01-05T04:39:36.437Z,10.40
2023-01-05T04:41:39.039Z,10.40
2023-01-05T04:43:41.655Z,10.40
2023-01-05T04:45:47.092Z,10.40
2023-01-05T04:47:50.983Z,10.40
2023-01-05T04:49:54.761Z,10.40
2023-01-05T04:51:57.868Z,10.40
2023-01-05T04:54:00.771Z,10.40
2023-01-05T04:56:03.406Z,10.30
2023-01-05T04:58:11.762Z,10.30
2023-01-05T05:00:12.886Z,10.30
2023-01-05T05:02:16.067Z,10.40
2023-01-05T05:04:19.859Z,10.40
2023-01-05T05:06:24.239Z,10.40
2023-01-05T05:08:27.260Z,10.50
2023-01-05T05:10:30.123Z,10.40
2023-01-05T05:12:32.712Z,10.50
2023-01-05T05:14:35.341Z,10.50
2023-01-05T05:16:38.137Z,10.50
2023-01-05T05:18:41.459Z,10.50
2023-01-05T05:20:48.462Z,10.50
2023-01-05T05:22:51.032Z,10.50
2023-01-05T05:24:54.090Z,10.50
2023-01-05T05:26:58.499Z,10.50
2023-01-05T05:29:01.087Z,10.50
2023-01-05T05:31:03.645Z,10.50
2023-01-05T05:33:06.213Z,10.50
2023-01-05T05:35:09.432Z,10.50
2023-01-05T05:37:12.018Z,10.40
2023-01-05T05:39:15.485Z,10.40
2023-01-05T05:41:17.969Z,10.30
2023-01-05T05:43:20.580Z,10.30
2023-01-05T05:45:23.084Z,10.20
2023-01-05T05:47:25.573Z,10.20
2023-01-05T05:49:28.096Z,10.10
2023-01-05T05:51:32.124Z,10.20
2023-01-05T05:53:34.620Z,10.20
2023-01-05T05:55:37.075Z,10.20
2023-01-05T05:57:39.588Z,10.10
2023-01-05T05:59:42.084Z,10.10
2023-01-05T06:01:44.708Z,10.10
2023-01-05T06:03:47.359Z,9.50
2023-01-05T06:05:49.891Z,10.20
2023-01-05T06:07:52.396Z,10.10
2023-01-05T06:09:55.003Z,10.10
2023-01-05T06:11:57.675Z,10.20
2023-01-05T06:14:02.213Z,10.10
2023-01-05T06:16:05.105Z,10.10
2023-01-05T06:18:07.759Z,10.10
2023-01-05T06:20:10.650Z,10.00
2023-01-05T06:22:13.161Z,10.10
2023-01-05T06:24:15.677Z,10.10
2023-01-05T06:26:18.259Z,10.10
2023-01-05T06:28:20.779Z,10.10
2023-01-05T06:30:23.283Z,10.10
2023-01-05T06:32:25.789Z,10.20
2023-01-05T06:34:28.390Z,10.10
2023-01-05T06:36:30.902Z,10.10
2023-01-05T06:38:33.461Z,10.10
2023-01-05T06:40:35.915Z,10.10
2023-01-05T06:42:38.527Z,10.00
2023-01-05T06:44:42.116Z,10.10
2023-01-05T06:46:44.603Z,10.00
2023-01-05T06:48:47.106Z,10.00
2023-01-05T06:50:49.620Z,10.30
2023-01-05T06:52:52.113Z,10.00
2023-01-05T06:54:54.636Z,10.00
2023-01-05T06:56:57.192Z,9.90
2023-01-05T06:58:59.726Z,9.90
2023-01-05T07:01:02.340Z,9.90
2023-01-05T07:03:05.912Z,9.90
2023-01-05T07:05:09.867Z,9.90
2023-01-05T07:07:12.857Z,9.90
2023-01-05T07:09:15.323Z,9.90
2023-01-05T07:11:17.817Z,10.00
2023-01-05T07:13:21.205Z,9.90
2023-01-05T07:15:23.689Z,9.80
2023-01-05T07:17:26.217Z,9.90
2023-01-05T07:19:28.974Z,9.90
2023-01-05T07:21:31.461Z,9.90
2023-01-05T07:23:35.719Z,9.80
2023-01-05T07:25:38.305Z,9.80
2023-01-05T07:27:40.759Z,9.80
2023-01-05T07:29:43.247Z,9.80
2023-01-05T07:31:47.017Z,9.80
2023-01-05T07:33:49.466Z,9.80
2023-01-05T07:35:52.061Z,9.80
2023-01-05T07:37:56.245Z,9.80
2023-01-05T07:39:58.705Z,9.80
2023-01-05T07:42:01.215Z,9.80
2023-01-05T07:44:04.219Z,9.80
2023-01-05T07:46:06.774Z,9.80
2023-01-05T07:48:09.354Z,9.80
2023-01-05T07:50:11.844Z,9.80
2023-01-05T07:52:14.357Z,9.80
2023-01-05T07:54:16.828Z,9.90
2023-01-05T07:56:19.344Z,9.90
2023-01-05T07:58:21.860Z,9.90
2023-01-05T08:00:24.419Z,9.90
2023-01-05T08:02:32.278Z,9.90
2023-01-05T08:04:31.697Z,9.90
2023-01-05T08:06:34.237Z,10.00
2023-01-05T08:08:36.902Z,10.00
2023-01-05T08:10:39.814Z,9.90
2023-01-05T08:13:01.769Z,9.90
2023-01-05T08:15:04.931Z,10.00
2023-01-05T08:17:07.628Z,10.00
2023-01-05T08:19:11.574Z,10.00
2023-01-05T08:21:14.610Z,10.00
2023-01-05T08:23:25.652Z,10.00
2023-01-05T08:25:21.437Z,9.90
2023-01-05T08:27:23.915Z,9.90
2023-01-05T08:29:26.487Z,9.90
2023-01-05T08:31:30.052Z,9.90
2023-01-05T08:33:32.591Z,9.90
2023-01-05T08:35:35.212Z,9.90
2023-01-05T08:37:38.943Z,10.00
2023-01-05T08:39:41.854Z,10.00
2023-01-05T08:41:44.376Z,10.00
2023-01-05T08:43:50.559Z,10.00
2023-01-05T08:45:53.399Z,10.00
2023-01-05T08:47:56.052Z,10.10
2023-01-05T08:49:58.620Z,10.10
2023-01-05T08:52:01.078Z,10.10
2023-01-05T08:54:03.663Z,10.20
2023-01-05T08:56:06.729Z,10.20
2023-01-05T08:58:11.011Z,10.20
2023-01-05T09:00:16.741Z,10.20
2023-01-05T09:02:25.732Z,10.20
2023-01-05T09:04:27.208Z,10.20
2023-01-05T09:06:29.791Z,10.20
2023-01-05T09:08:32.944Z,10.20
2023-01-05T09:10:35.608Z,10.20
2023-01-05T09:12:38.599Z,10.20
2023-01-05T09:14:41.117Z,10.20
2023-01-05T09:18:48.279Z,10.30
2023-01-05T09:20:55.415Z,10.30
2023-01-05T09:22:57.908Z,10.20
2023-01-05T09:25:00.412Z,10.20
2023-01-05T09:27:04.990Z,10.20
2023-01-05T09:29:07.685Z,10.20
2023-01-05T09:31:11.102Z,10.20
2023-01-05T09:33:13.801Z,10.20
2023-01-05T09:35:16.377Z,10.20
2023-01-05T09:37:19.605Z,10.30
2023-01-05T09:39:22.082Z,10.30
2023-01-05T09:41:26.019Z,10.30
2023-01-05T09:43:29.928Z,10.30
2023-01-05T09:45:32.417Z,10.40
2023-01-05T09:47:37.229Z,10.40
2023-01-05T09:49:40.519Z,10.40
2023-01-05T09:51:43.467Z,10.40
2023-01-05T09:53:46.337Z,10.50
2023-01-05T09:55:50.008Z,10.40
2023-01-05T09:57:53.741Z,10.40
2023-01-05T09:59:58.151Z,10.40
2023-01-05T10:02:01.579Z,10.50
2023-01-05T10:04:06.536Z,10.50
2023-01-05T10:06:12.217Z,10.50
2023-01-05T10:08:17.636Z,10.50
2023-01-05T10:10:31.166Z,10.50
2023-01-05T10:12:53.873Z,10.60
2023-01-05T10:14:58.397Z,10.60
2023-01-05T10:17:38.666Z,10.60
2023-01-05T10:19:06.633Z,10.60
2023-01-05T10:21:10.949Z,10.70
2023-01-05T10:23:15.269Z,10.60
2023-01-05T10:25:20.137Z,10.60
2023-01-05T10:27:25.793Z,10.70
2023-01-05T10:29:30.390Z,10.70
2023-01-05T10:31:35.774Z,10.70
2023-01-05T10:33:52.517Z,10.80
2023-01-05T10:36:01.818Z,10.80
2023-01-05T10:38:03.490Z,10.80
2023-01-05T10:40:11.519Z,10.80
2023-01-05T10:42:15.913Z,10.80
2023-01-05T10:44:26.331Z,10.80
2023-01-05T10:46:34.971Z,10.80
2023-01-05T10:48:34.989Z,10.80
2023-01-05T10:50:38.827Z,10.80
2023-01-05T10:52:41.677Z,10.90
2023-01-05T10:54:47.489Z,10.90
2023-01-05T10:56:54.574Z,10.90
2023-01-05T10:59:10.486Z,10.90
2023-01-05T11:01:21.016Z,10.90
2023-01-05T11:03:55.625Z,10.90
2023-01-05T11:05:34.058Z,10.90
2023-01-05T11:07:47.098Z,10.90
2023-01-05T11:09:50.097Z,11.00
2023-01-05T11:11:56.915Z,11.00
2023-01-05T11:13:59.472Z,11.00
2023-01-05T11:16:10.694Z,10.90
2023-01-05T11:18:21.807Z,11.00
2023-01-05T11:20:26.158Z,11.00
2023-01-05T11:22:29.920Z,11.00
2023-01-05T11:24:33.251Z,11.00
2023-01-05T11:26:37.068Z,11.10
2023-01-05T11:28:42.172Z,11.10
2023-01-05T11:30:49.600Z,11.00
2023-01-05T11:32:53.217Z,11.10
2023-01-05T11:34:59.894Z,11.10
2023-01-05T11:37:08.180Z,11.10
2023-01-05T11:39:11.576Z,11.10
2023-01-05T11:41:14.947Z,11.10
2023-01-05T11:43:19.760Z,11.10
2023-01-05T11:45:24.783Z,11.10
2023-01-05T11:47:29.646Z,11.10
2023-01-05T11:49:32.439Z,11.20
2023-01-05T11:51:35.879Z,11.20
2023-01-05T11:53:39.813Z,11.20
2023-01-05T11:55:42.331Z,11.20
2023-01-05T11:57:44.794Z,11.30
2023-01-05T11:59:47.285Z,11.20
2023-01-05T12:01:55.113Z,11.30
2023-01-05T12:04:06.002Z,11.30
2023-01-05T12:06:10.726Z,11.30
2023-01-05T12:08:15.363Z,11.30
2023-01-05T12:10:27.796Z,11.30
2023-01-05T12:12:38.183Z,11.30
2023-01-05T12:14:45.601Z,11.30
2023-01-05T12:16:49.640Z,11.30
2023-01-05T12:19:11.434Z,11.30
2023-01-05T12:21:15.791Z,11.40
2023-01-05T12:23:29.498Z,11.30
2023-01-05T12:25:35.295Z,11.40
2023-01-05T12:27:43.145Z,11.30
2023-01-05T12:34:43.740Z,11.30
2023-01-05T12:36:50.598Z,11.30
2023-01-05T12:38:57.555Z,11.30
2023-01-05T12:41:05.673Z,11.30
2023-01-05T12:43:10.069Z,11.30
2023-01-05T12:45:31.786Z,11.40
2023-01-05T12:47:36.764Z,11.40
2023-01-05T12:49:41.066Z,11.40
2023-01-05T12:51:45.341Z,11.40
2023-01-05T12:53:51.116Z,11.40
2023-01-05T12:55:55.281Z,11.30
2023-01-05T12:57:59.710Z,11.30
2023-01-05T13:00:04.461Z,11.30
2023-01-05T13:02:12.354Z,11.30
2023-01-05T13:04:18.735Z,11.30
2023-01-05T13:06:22.341Z,11.30
2023-01-05T13:08:27.103Z,11.40
2023-01-05T13:10:31.887Z,11.30
2023-01-05T13:12:35.107Z,11.30
2023-01-05T13:14:39.381Z,11.30
2023-01-05T13:16:43.053Z,11.40
2023-01-05T13:18:47.739Z,11.40
2023-01-05T13:20:52.022Z,11.40
2023-01-05T13:22:56.468Z,11.40
2023-01-05T13:25:01.260Z,11.50
2023-01-05T13:27:03.833Z,11.50
2023-01-05T13:29:06.444Z,11.50
2023-01-05T13:31:37.414Z,11.50
2023-01-05T13:36:15.367Z,11.50
2023-01-05T13:38:46.039Z,11.50
2023-01-05T13:43:35.571Z,11.50
2023-01-05T13:45:54.839Z,11.50
2023-01-05T13:48:14.813Z,11.50
2023-01-05T13:50:24.629Z,11.40
2023-01-05T13:52:30.148Z,11.60
2023-01-05T13:54:43.702Z,11.60
2023-01-05T13:56:44.302Z,11.50
2023-01-05T13:58:48.403Z,11.50
2023-01-05T14:00:52.209Z,11.50
2023-01-05T14:02:59.629Z,11.50
2023-01-05T14:05:04.376Z,11.50
2023-01-05T14:07:08.754Z,11.50
2023-01-05T14:09:15.071Z,11.40
2023-01-05T14:11:18.890Z,10.60
2023-01-05T14:13:40.533Z,11.30
2023-01-05T14:15:43.829Z,11.30
2023-01-05T14:17:54.017Z,11.40
2023-01-05T14:19:56.506Z,11.30
2023-01-05T14:21:59.943Z,11.30
2023-01-05T14:24:02.508Z,11.20
2023-01-05T14:26:06.118Z,11.30
2023-01-05T14:28:22.701Z,11.30
2023-01-05T14:30:26.923Z,11.20
2023-01-05T14:32:30.939Z,11.30
2023-01-05T14:34:33.831Z,11.20
2023-01-05T14:36:37.846Z,11.20
2023-01-05T14:38:42.247Z,11.20
2023-01-05T14:40:46.202Z,11.20
2023-01-05T14:42:49.423Z,11.20
2023-01-05T14:44:53.875Z,11.20
2023-01-05T14:46:56.785Z,11.20
2023-01-05T14:49:00.946Z,11.20
2023-01-05T14:51:29.235Z,11.10
2023-01-05T14:53:43.111Z,11.20
2023-01-05T14:56:04.895Z,11.20
2023-01-05T14:58:12.085Z,11.20
2023-01-05T15:00:16.311Z,11.20
2023-01-05T15:02:21.728Z,11.20
2023-01-05T15:04:26.011Z,11.10
2023-01-05T15:06:31.337Z,11.10
2023-01-05T15:08:51.685Z,11.10
2023-01-05T15:11:15.665Z,11.10
2023-01-05T15:13:28.379Z,10.90
2023-01-05T15:15:40.800Z,10.90
2023-01-05T15:17:53.152Z,10.90
2023-01-05T15:20:14.828Z,10.80
2023-01-05T15:22:37.749Z,10.70
2023-01-05T15:24:37.362Z,10.60
2023-01-05T15:26:44.627Z,10.60
2023-01-05T15:29:11.938Z,10.60
2023-01-05T15:31:18.452Z,10.60
2023-01-05T15:33:22.731Z,10.50
2023-01-05T15:35:29.383Z,10.40
2023-01-05T15:37:33.471Z,10.40
2023-01-05T15:39:38.765Z,10.50
2023-01-05T15:41:41.449Z,10.40
2023-01-05T15:43:44.110Z,10.30
2023-01-05T15:45:50.775Z,10.40
2023-01-05T15:47:53.635Z,10.40
2023-01-05T15:49:57.054Z,10.30
2023-01-05T15:51:59.829Z,10.30
2023-01-05T15:54:04.734Z,10.30
2023-01-05T15:56:09.347Z,10.40
2023-01-05T15:58:15.407Z,10.30
2023-01-05T16:00:20.524Z,10.40
2023-01-05T16:02:24.249Z,10.30
2023-01-05T16:04:27.311Z,10.30
2023-01-05T16:06:30.279Z,10.30
2023-01-05T16:08:33.896Z,10.30
2023-01-05T16:10:37.874Z,10.30
2023-01-05T16:12:40.625Z,10.20
2023-01-05T16:14:44.528Z,10.20
2023-01-05T16:16:53.964Z,10.20
2023-01-05T16:18:55.196Z,10.20
2023-01-05T16:20:58.890Z,10.20
2023-01-05T16:23:08.370Z,10.20
2023-01-05T16:25:09.628Z,10.20
2023-01-05T16:27:12.814Z,10.20
2023-01-05T16:29:23.835Z,10.30
2023-01-05T16:31:28.492Z,10.20
2023-01-05T16:33:34.675Z,10.20
2023-01-05T16:35:42.219Z,10.20
2023-01-05T16:37:45.803Z,10.20
2023-01-05T16:39:48.310Z,10.20
2023-01-05T16:42:10.747Z,10.30
2023-01-05T16:44:13.555Z,10.30
2023-01-05T16:46:28.383Z,10.30
2023-01-05T16:48:46.388Z,10.30
2023-01-05T16:50:55.895Z,10.30
2023-01-05T16:52:59.272Z,10.40
2023-01-05T16:55:20.058Z,10.30
2023-01-05T16:57:34.275Z,10.40
2023-01-05T16:59:44.312Z,10.30
2023-01-05T17:01:46.874Z,10.30
2023-01-05T17:03:49.699Z,10.30
2023-01-05T17:05:52.871Z,10.40
2023-01-05T17:07:58.528Z,10.40
2023-01-05T17:10:01.110Z,10.40
2023-01-05T17:12:03.948Z,10.40
2023-01-05T17:14:07.574Z,10.50
2023-01-05T17:16:11.209Z,10.50
2023-01-05T17:18:16.217Z,10.50
2023-01-05T17:20:19.028Z,10.40
2023-01-05T17:22:21.559Z,10.50
2023-01-05T17:24:25.585Z,10.50
2023-01-05T17:26:29.083Z,10.50
2023-01-05T17:28:31.579Z,10.50
2023-01-05T17:30:34.125Z,10.40
2023-01-05T17:32:36.584Z,10.40
2023-01-05T17:34:40.663Z,10.50
2023-01-05T17:36:43.776Z,10.50
2023-01-05T17:38:47.427Z,10.40
2023-01-05T17:40:50.127Z,10.40
2023-01-05T17:42:52.613Z,10.30
2023-01-05T17:44:55.111Z,10.30
2023-01-05T17:46:57.574Z,10.30
2023-01-05T17:49:00.734Z,10.30
2023-01-05T17:51:03.365Z,10.20
2023-01-05T17:53:05.849Z,10.20
2023-01-05T17:55:09.148Z,10.20
2023-01-05T17:57:12.915Z,10.30
2023-01-05T17:59:15.474Z,10.30
2023-01-05T18:01:18.243Z,10.30
2023-01-05T18:03:21.677Z,10.30
2023-01-05T18:05:24.431Z,10.30
2023-01-05T18:07:28.695Z,10.30
2023-01-05T18:09:33.200Z,10.40
2023-01-05T18:13:38.163Z,10.40
2023-01-05T18:15:42.664Z,10.40
2023-01-05T18:17:45.150Z,10.40
2023-01-05T18:19:48.051Z,10.40
2023-01-05T18:21:50.639Z,10.40
2023-01-05T18:23:53.201Z,10.40
2023-01-05T18:25:58.810Z,10.40
2023-01-05T18:28:01.769Z,10.40
2023-01-05T18:30:06.163Z,10.40
2023-01-05T18:32:09.635Z,10.40
2023-01-05T18:34:12.150Z,10.40
2023-01-05T18:36:15.163Z,10.50
2023-01-05T18:38:17.720Z,10.40
2023-01-05T18:40:20.717Z,10.50
2023-01-05T18:42:23.279Z,10.50
2023-01-05T18:44:25.779Z,10.50
2023-01-05T18:46:29.160Z,10.60
2023-01-05T18:48:31.741Z,10.40
2023-01-05T18:50:34.254Z,10.40
2023-01-05T18:52:36.859Z,10.40
2023-01-05T18:54:39.353Z,10.50
2023-01-05T18:56:41.819Z,10.40
2023-01-05T18:58:44.459Z,10.40
2023-01-05T19:00:47.002Z,10.40
2023-01-05T19:02:49.506Z,10.40
2023-01-05T19:04:52.467Z,10.30
2023-01-05T19:06:55.264Z,10.20
2023-01-05T19:08:59.555Z,10.20
2023-01-05T19:11:04.005Z,10.20
2023-01-05T19:13:06.785Z,10.10
2023-01-05T19:15:10.503Z,10.10
2023-01-05T19:17:13.011Z,10.00
2023-01-05T19:19:15.707Z,9.90
2023-01-05T19:21:18.212Z,9.90
2023-01-05T19:23:21.069Z,9.90
2023-01-05T19:25:23.548Z,9.80
2023-01-05T19:27:27.476Z,9.80
2023-01-05T19:29:29.953Z,9.80
2023-01-05T19:31:32.731Z,9.80
2023-01-05T19:33:35.577Z,9.80
2023-01-05T19:35:38.115Z,9.80
2023-01-05T19:37:41.831Z,9.80
2023-01-05T19:39:44.332Z,9.80
2023-01-05T19:41:47.448Z,9.80
2023-01-05T19:43:50.832Z,9.80
2023-01-05T19:45:57.880Z,9.80
2023-01-05T19:48:00.351Z,9.80
2023-01-05T19:50:02.870Z,9.80
2023-01-05T19:52:05.466Z,9.80
2023-01-05T19:54:09.771Z,9.80
2023-01-05T19:56:13.047Z,9.80
2023-01-05T19:58:15.567Z,9.80
2023-01-05T20:00:18.809Z,9.80
2023-01-05T20:02:21.278Z,9.80
2023-01-05T20:04:23.907Z,9.80
2023-01-05T20:06:27.438Z,9.80
2023-01-05T20:08:30.015Z,9.80
2023-01-05T20:10:32.535Z,9.90
2023-01-05T20:12:35.328Z,9.90
2023-01-05T20:14:37.837Z,9.90
2023-01-05T20:16:40.867Z,10.00
2023-01-05T20:18:43.378Z,10.00
2023-01-05T20:20:45.967Z,9.90
2023-01-05T20:22:48.551Z,10.00
2023-01-05T20:24:51.181Z,10.00
2023-01-05T20:26:55.110Z,10.00
2023-01-05T20:29:00.022Z,10.00
2023-01-05T20:31:02.600Z,10.10
2023-01-05T20:33:05.257Z,10.10
2023-01-05T20:35:09.875Z,10.10
2023-01-05T20:37:12.384Z,10.10
2023-01-05T20:39:16.529Z,10.10
2023-01-05T20:41:20.816Z,10.20
2023-01-05T20:43:23.282Z,10.20
2023-01-05T20:45:25.772Z,10.20
2023-01-05T20:47:29.952Z,10.20
2023-01-05T20:49:32.920Z,10.20
2023-01-05T20:51:35.622Z,10.30
2023-01-05T20:53:38.714Z,10.30
2023-01-05T20:55:41.235Z,10.30
2023-01-05T20:57:43.691Z,10.30
2023-01-05T20:59:46.204Z,10.30
2023-01-05T21:01:49.049Z,10.40
2023-01-05T21:03:52.324Z,10.40
2023-01-05T21:05:54.973Z,10.30
2023-01-05T21:07:57.469Z,10.30
2023-01-05T21:10:00.002Z,10.30
2023-01-05T21:12:02.508Z,10.30
2023-01-05T21:14:06.205Z,10.30
2023-01-05T21:16:10.266Z,10.30
2023-01-05T21:18:12.755Z,10.30
2023-01-05T21:20:15.365Z,10.30
2023-01-05T21:22:17.826Z,10.30
2023-01-05T21:24:20.565Z,10.20
2023-01-05T21:26:24.076Z,10.20
2023-01-05T21:28:29.155Z,10.20
2023-01-05T21:30:30.945Z,10.20
2023-01-05T21:32:33.543Z,10.10
2023-01-05T21:34:36.081Z,10.10
2023-01-05T21:36:40.879Z,10.10
2023-01-05T21:39:00.790Z,10.10
2023-01-05T21:40:50.872Z,10.10
2023-01-05T21:42:53.469Z,10.10
2023-01-05T21:44:55.977Z,10.20
2023-01-05T21:46:58.538Z,10.10
2023-01-05T21:49:01.108Z,10.20
2023-01-05T21:51:29.608Z,10.20
2023-01-05T21:53:50.388Z,10.20
2023-01-05T21:56:11.167Z,10.20
2023-01-05T21:58:13.783Z,10.20
2023-01-05T22:00:16.761Z,10.10
2023-01-05T22:02:19.228Z,10.20
2023-01-05T22:04:22.117Z,10.20
2023-01-05T22:06:24.623Z,10.20
2023-01-05T22:08:27.104Z,10.20
2023-01-05T22:10:29.591Z,10.20
2023-01-05T22:12:32.088Z,10.20
2023-01-05T22:14:34.786Z,10.20
2023-01-05T22:16:37.414Z,10.20
2023-01-05T22:18:40.033Z,10.30
2023-01-05T22:20:42.672Z,10.30
2023-01-05T22:22:45.169Z,10.30
2023-01-05T22:24:47.832Z,10.20
2023-01-05T22:26:50.323Z,10.20
2023-01-05T22:28:52.804Z,10.30
2023-01-05T22:31:02.393Z,10.30
2023-01-05T22:33:04.917Z,10.30
2023-01-05T22:35:07.766Z,10.30
2023-01-05T22:37:10.355Z,10.30
2023-01-05T22:39:13.047Z,10.30
2023-01-05T22:41:16.565Z,10.40
2023-01-05T22:43:19.264Z,10.40
2023-01-05T22:45:21.770Z,10.40
2023-01-05T22:47:24.608Z,10.40
2023-01-05T22:49:28.104Z,10.40
2023-01-05T22:51:31.479Z,10.50
2023-01-05T22:53:34.276Z,10.50
2023-01-05T22:55:36.776Z,10.50
2023-01-05T22:57:39.325Z,10.40
2023-01-05T22:59:41.836Z,10.50
2023-01-05T23:01:46.115Z,10.50
2023-01-05T23:03:48.732Z,10.50
2023-01-05T23:05:52.635Z,10.50
2023-01-05T23:07:55.224Z,10.50
2023-01-05T23:09:57.756Z,10.50
2023-01-05T23:12:00.641Z,10.50
2023-01-05T23:14:05.037Z,10.50
2023-01-05T23:16:08.183Z,10.50
2023-01-05T23:18:10.740Z,10.50
2023-01-05T23:20:13.645Z,10.50
2023-01-05T23:22:16.285Z,10.50
2023-01-05T23:24:18.779Z,10.40
2023-01-05T23:26:21.764Z,10.40
2023-01-05T23:28:25.303Z,10.40
2023-01-05T23:30:27.838Z,10.40
2023-01-05T23:32:30.393Z,10.30
2023-01-05T23:34:33.023Z,10.30
2023-01-05T23:36:35.564Z,10.30
2023-01-05T23:38:38.654Z,10.30
2023-01-05T23:40:42.065Z,10.20
2023-01-05T23:42:45.915Z,10.20
2023-01-05T23:44:48.364Z,10.20
2023-01-05T23:46:50.889Z,10.10
2023-01-05T23:48:53.465Z,10.10
2023-01-05T23:50:56.633Z,10.10
2023-01-05T23:52:59.407Z,10.10
2023-01-05T23:55:05.859Z,10.10
2023-01-05T23:57:11.775Z,10.10
2023-01-05T23:59:14.519Z,10.10
